createdAt,value
2024-04-24T00:00:04.107Z,98005.28
2024-04-24T00:00:34.939Z,98001.19
2024-04-24T00:01:05.771Z,98002.03
2024-04-24T00:01:36.649Z,98002.88
2024-04-24T00:02:07.738Z,97997.81
2024-04-24T00:02:38.670Z,98000.94
2024-04-24T00:03:10.356Z,98002.75
2024-04-24T00:03:41.614Z,98000.34
2024-04-24T00:04:12.477Z,98007.25
2024-04-24T00:04:43.350Z,98001.78
2024-04-24T00:05:14.189Z,97995.63
2024-04-24T00:05:45.046Z,98004.44
2024-04-24T00:06:16.521Z,98003.72
2024-04-24T00:06:47.326Z,97987.78
2024-04-24T00:07:18.302Z,97989.25
2024-04-24T00:07:49.446Z,97994.78
2024-04-24T00:08:20.275Z,97987.31
2024-04-24T00:08:51.099Z,97998.53
2024-04-24T00:09:21.946Z,97992.25
2024-04-24T00:09:52.740Z,97990.44
2024-04-24T00:10:23.594Z,97992.97
2024-04-24T00:10:54.555Z,97998.03
2024-04-24T00:11:26.961Z,97996.22
2024-04-24T00:11:57.880Z,97992.72
2024-04-24T00:12:28.792Z,97998.88
2024-04-24T00:12:59.641Z,97983.53
2024-04-24T00:13:30.451Z,98001.44
2024-04-24T00:14:01.295Z,97992.50
2024-04-24T00:14:32.353Z,97993.47
2024-04-24T00:15:03.852Z,97997.94
2024-04-24T00:15:34.966Z,97986.59
2024-04-24T00:16:06.023Z,97993.72
2024-04-24T00:16:36.922Z,97984.88
2024-04-24T00:17:07.842Z,97993.56
2024-04-24T00:17:38.690Z,97995.16
2024-04-24T00:18:09.649Z,97988.75
2024-04-24T00:18:41.434Z,97982.94
2024-04-24T00:19:12.325Z,97993.31
2024-04-24T00:19:43.235Z,97992.38
2024-04-24T00:20:14.061Z,97988.16
2024-04-24T00:20:44.977Z,97997.44
2024-04-24T00:21:15.817Z,97991.28
2024-04-24T00:21:46.619Z,97992.97
2024-04-24T00:22:17.495Z,97990.19
2024-04-24T00:22:48.522Z,97991.28
2024-04-24T00:23:19.452Z,97990.66
2024-04-24T00:23:50.348Z,97992.25
2024-04-24T00:24:21.489Z,97975.47
2024-04-24T00:24:52.266Z,97981.03
2024-04-24T00:25:23.092Z,97982.94
2024-04-24T00:25:57.036Z,97976.78
2024-04-24T00:26:28.070Z,97983.31
2024-04-24T00:26:59.396Z,97986.69
2024-04-24T00:27:30.246Z,97985.75
2024-04-24T00:28:01.244Z,97994.31
2024-04-24T00:28:32.378Z,97989.84
2024-04-24T00:29:03.330Z,97989.69
2024-04-24T00:29:34.210Z,97989.69
2024-04-24T00:30:05.548Z,97982.94
2024-04-24T00:30:36.374Z,97989.84
2024-04-24T00:31:07.374Z,97991.41
2024-04-24T00:31:38.193Z,97982.84
2024-04-24T00:32:09.139Z,97991.50
2024-04-24T00:32:40.638Z,97993.47
2024-04-24T00:33:11.725Z,97985.38
2024-04-24T00:33:42.691Z,97984.53
2024-04-24T00:34:13.600Z,97988.03
2024-04-24T00:34:44.598Z,97985.75
2024-04-24T00:35:15.569Z,97984.63
2024-04-24T00:35:46.507Z,97984.63
2024-04-24T00:36:17.385Z,97976.91
2024-04-24T00:36:48.171Z,97987.19
2024-04-24T00:37:18.965Z,97970.66
2024-04-24T00:37:49.791Z,97985.50
2024-04-24T00:38:20.786Z,97982.09
2024-04-24T00:38:51.703Z,97982.72
2024-04-24T00:39:22.526Z,97988.16
2024-04-24T00:39:53.312Z,97984.53
2024-04-24T00:40:24.156Z,97979.44
2024-04-24T00:40:55.001Z,97984.63
2024-04-24T00:41:25.864Z,97978.84
2024-04-24T00:41:56.735Z,97974.97
2024-04-24T00:42:27.628Z,97981.13
2024-04-24T00:42:58.448Z,97975.22
2024-04-24T00:43:29.327Z,97981.28
2024-04-24T00:44:00.161Z,97985.59
2024-04-24T00:44:31.039Z,97981.03
2024-04-24T00:45:01.908Z,97985.50
2024-04-24T00:45:32.751Z,97979.31
2024-04-24T00:46:04.502Z,97987.03
2024-04-24T00:46:36.757Z,97976.66
2024-04-24T00:47:08.629Z,97980.44
2024-04-24T00:47:40.726Z,97988.84
2024-04-24T00:48:12.297Z,97976.78
2024-04-24T00:48:44.796Z,97977.63
2024-04-24T00:49:18.788Z,97988.84
2024-04-24T00:49:51.875Z,97983.69
2024-04-24T00:50:24.211Z,97984.53
2024-04-24T00:50:56.480Z,97992.59
2024-04-24T00:51:29.002Z,97981.03
2024-04-24T00:51:59.834Z,97978.72
2024-04-24T00:52:30.850Z,97981.38
2024-04-24T00:53:02.744Z,97981.38
2024-04-24T00:53:34.747Z,97977.78
2024-04-24T00:54:06.377Z,97981.97
2024-04-24T00:54:37.721Z,97981.13
2024-04-24T00:55:09.075Z,97969.91
2024-04-24T00:55:40.830Z,97977.53
2024-04-24T00:56:12.333Z,97981.13
2024-04-24T00:56:43.685Z,97983.94
2024-04-24T00:57:15.059Z,97976.78
2024-04-24T00:57:46.021Z,97970.16
2024-04-24T00:58:17.637Z,97976.91
2024-04-24T00:58:50.809Z,97966.75
2024-04-24T00:59:22.842Z,97974.25
2024-04-24T00:59:53.740Z,97970.16
2024-04-24T01:00:25.070Z,97975.22
2024-04-24T01:00:56.744Z,97972.69
2024-04-24T01:01:27.938Z,97974.25
2024-04-24T01:01:59.043Z,97974.25
2024-04-24T01:02:30.193Z,97976.91
2024-04-24T01:03:04.301Z,97981.28
2024-04-24T01:03:35.257Z,97969.78
2024-04-24T01:04:06.100Z,97966.41
2024-04-24T01:04:37.510Z,97973.16
2024-04-24T01:05:08.391Z,97972.56
2024-04-24T01:05:39.435Z,97978.47
2024-04-24T01:06:10.240Z,97975.97
2024-04-24T01:06:41.046Z,97970.88
2024-04-24T01:07:12.046Z,97972.44
2024-04-24T01:07:43.030Z,97971.72
2024-04-24T01:08:13.891Z,97974.38
2024-04-24T01:08:44.874Z,97963.88
2024-04-24T01:09:15.696Z,97972.56
2024-04-24T01:09:46.560Z,97975.22
2024-04-24T01:10:18.586Z,97971.84
2024-04-24T01:10:59.694Z,97970.16
2024-04-24T01:11:33.903Z,97980.66
2024-04-24T01:12:05.005Z,97962.53
2024-04-24T01:12:35.954Z,97976.06
2024-04-24T01:13:06.850Z,97965.69
2024-04-24T01:13:37.663Z,97978.84
2024-04-24T01:14:08.928Z,97975.13
2024-04-24T01:14:40.044Z,97974.13
2024-04-24T01:15:11.558Z,97963.75
2024-04-24T01:15:44.344Z,97971.59
2024-04-24T01:16:18.179Z,97966.66
2024-04-24T01:16:49.884Z,97974.38
2024-04-24T01:17:21.556Z,97968.59
2024-04-24T01:17:54.981Z,97970.88
2024-04-24T01:18:29.369Z,97966.75
2024-04-24T01:19:07.300Z,97967.75
2024-04-24T01:19:46.406Z,97961.44
2024-04-24T01:20:22.834Z,97964.34
2024-04-24T01:20:56.426Z,97969.41
2024-04-24T01:21:44.911Z,97967.84
2024-04-24T01:22:48.442Z,97965.78
2024-04-24T01:23:32.406Z,97969.19
2024-04-24T01:24:15.812Z,97970.88
2024-04-24T01:25:20.553Z,97967.84
2024-04-24T01:26:07.310Z,97965.69
2024-04-24T01:26:43.844Z,97963.63
2024-04-24T01:27:17.254Z,97965.44
2024-04-24T01:27:48.726Z,97963.88
2024-04-24T01:28:21.464Z,97963.88
2024-04-24T01:28:53.702Z,97958.78
2024-04-24T01:29:24.558Z,97963.50
2024-04-24T01:29:55.630Z,97962.78
2024-04-24T01:30:26.525Z,97961.09
2024-04-24T01:31:00.056Z,97964.34
2024-04-24T01:31:31.127Z,97971.47
2024-04-24T01:32:02.110Z,97966.88
2024-04-24T01:32:33.115Z,97959.88
2024-04-24T01:33:04.599Z,97952.53
2024-04-24T01:33:38.153Z,97955.19
2024-04-24T01:34:09.196Z,97951.44
2024-04-24T01:34:40.038Z,97965.94
2024-04-24T01:35:10.931Z,97956.13
2024-04-24T01:35:43.690Z,97964.72
2024-04-24T01:36:14.493Z,97955.53
2024-04-24T01:36:45.333Z,97961.84
2024-04-24T01:37:16.153Z,97960.25
2024-04-24T01:37:47.035Z,97960.25
2024-04-24T01:38:18.019Z,97952.53
2024-04-24T01:38:48.986Z,97952.41
2024-04-24T01:39:19.918Z,97960.97
2024-04-24T01:39:50.694Z,97950.72
2024-04-24T01:40:21.585Z,97955.19
2024-04-24T01:40:52.478Z,97960.25
2024-04-24T01:41:23.424Z,97945.75
2024-04-24T01:41:54.242Z,97945.91
2024-04-24T01:42:25.036Z,97945.41
2024-04-24T01:42:56.101Z,97948.06
2024-04-24T01:43:27.001Z,97949.88
2024-04-24T01:43:57.854Z,97953.38
2024-04-24T01:44:28.772Z,97949.03
2024-04-24T01:44:59.679Z,97951.31
2024-04-24T01:45:30.579Z,97947.22
2024-04-24T01:46:02.844Z,97946.16
2024-04-24T01:46:33.645Z,97942.16
2024-04-24T01:47:04.489Z,97951.47
2024-04-24T01:47:35.541Z,97952.28
2024-04-24T01:48:06.913Z,97941.78
2024-04-24T01:48:37.883Z,97942.84
2024-04-24T01:49:08.781Z,97943.84
2024-04-24T01:49:39.590Z,97946.50
2024-04-24T01:50:10.427Z,97942.50
2024-04-24T01:50:41.344Z,97942.75
2024-04-24T01:51:12.127Z,97939.00
2024-04-24T01:51:42.973Z,97954.94
2024-04-24T01:52:13.791Z,97945.41
2024-04-24T01:52:44.568Z,97946.25
2024-04-24T01:53:15.461Z,97942.75
2024-04-24T01:53:46.307Z,97948.06
2024-04-24T01:54:17.125Z,97942.03
2024-04-24T01:54:48.059Z,97947.69
2024-04-24T01:55:18.893Z,97934.88
2024-04-24T01:55:49.712Z,97939.84
2024-04-24T01:56:20.546Z,97947.94
2024-04-24T01:56:51.686Z,97946.97
2024-04-24T01:57:22.588Z,97942.50
2024-04-24T01:57:53.408Z,97940.09
2024-04-24T01:58:24.297Z,97949.03
2024-04-24T01:58:55.128Z,97948.31
2024-04-24T01:59:26.021Z,97945.50
2024-04-24T01:59:56.850Z,97942.84
2024-04-24T02:00:27.679Z,97951.47
2024-04-24T02:00:58.555Z,97947.81
2024-04-24T02:01:29.808Z,97948.56
2024-04-24T02:02:00.695Z,97946.59
2024-04-24T02:02:31.624Z,97941.91
2024-04-24T02:03:02.617Z,97943.00
2024-04-24T02:03:33.447Z,97946.16
2024-04-24T02:04:04.429Z,97944.31
2024-04-24T02:04:35.223Z,97947.94
2024-04-24T02:05:06.390Z,97952.16
2024-04-24T02:05:37.926Z,97951.22
2024-04-24T02:06:08.729Z,97948.31
2024-04-24T02:06:39.539Z,97952.78
2024-04-24T02:07:10.300Z,97937.34
2024-04-24T02:07:41.116Z,97949.00
2024-04-24T02:08:11.941Z,97943.84
2024-04-24T02:08:42.732Z,97949.00
2024-04-24T02:09:13.543Z,97949.00
2024-04-24T02:09:44.376Z,97953.38
2024-04-24T02:10:15.235Z,97944.44
2024-04-24T02:10:46.050Z,97941.03
2024-04-24T02:11:20.253Z,97929.81
2024-04-24T02:11:59.468Z,97934.06
2024-04-24T02:12:38.447Z,97941.03
2024-04-24T02:13:09.279Z,97939.47
2024-04-24T02:13:40.177Z,97944.78
2024-04-24T02:14:11.034Z,97941.03
2024-04-24T02:14:41.826Z,97940.44
2024-04-24T02:15:12.747Z,97935.03
2024-04-24T02:15:43.551Z,97935.97
2024-04-24T02:16:14.351Z,97942.03
2024-04-24T02:16:45.331Z,97941.88
2024-04-24T02:17:16.480Z,97938.63
2024-04-24T02:17:47.496Z,97942.84
2024-04-24T02:18:18.366Z,97939.47
2024-04-24T02:18:49.576Z,97940.19
2024-04-24T02:19:20.440Z,97944.53
2024-04-24T02:19:51.324Z,97939.13
2024-04-24T02:20:22.351Z,97933.47
2024-04-24T02:20:53.197Z,97939.47
2024-04-24T02:21:23.960Z,97937.53
2024-04-24T02:21:54.759Z,97937.09
2024-04-24T02:22:25.592Z,97936.84
2024-04-24T02:22:57.069Z,97938.78
2024-04-24T02:23:31.478Z,97947.19
2024-04-24T02:24:02.316Z,97944.53
2024-04-24T02:24:51.517Z,97939.22
2024-04-24T02:25:34.559Z,97940.44
2024-04-24T02:26:08.885Z,97939.72
2024-04-24T02:26:39.797Z,97941.28
2024-04-24T02:27:10.592Z,97932.38
2024-04-24T02:27:41.380Z,97937.94
2024-04-24T02:28:12.295Z,97936.94
2024-04-24T02:28:43.143Z,97939.47
2024-04-24T02:29:14.004Z,97935.38
2024-04-24T02:29:51.806Z,97946.75
2024-04-24T02:30:27.068Z,97939.97
2024-04-24T02:30:57.871Z,97937.94
2024-04-24T02:31:28.814Z,97942.50
2024-04-24T02:31:59.688Z,97934.06
2024-04-24T02:32:30.891Z,97932.97
2024-04-24T02:33:02.676Z,97932.13
2024-04-24T02:33:33.665Z,97930.22
2024-04-24T02:34:04.591Z,97936.34
2024-04-24T02:34:35.402Z,97930.44
2024-04-24T02:35:06.404Z,97926.69
2024-04-24T02:35:37.261Z,97939.59
2024-04-24T02:36:08.131Z,97935.13
2024-04-24T02:36:38.939Z,97937.94
2024-04-24T02:37:09.735Z,97939.47
2024-04-24T02:37:40.554Z,97937.94
2024-04-24T02:38:11.342Z,97935.88
2024-04-24T02:38:42.156Z,97937.78
2024-04-24T02:39:13.037Z,97929.22
2024-04-24T02:39:43.849Z,97933.31
2024-04-24T02:40:14.692Z,97943.94
2024-04-24T02:40:45.556Z,97937.94
2024-04-24T02:41:16.469Z,97940.59
2024-04-24T02:41:47.389Z,97937.09
2024-04-24T02:42:18.172Z,97936.94
2024-04-24T02:42:49.251Z,97941.44
2024-04-24T02:43:20.036Z,97925.13
2024-04-24T02:43:50.912Z,97943.59
2024-04-24T02:44:21.930Z,97933.69
2024-04-24T02:44:52.925Z,97928.16
2024-04-24T02:45:23.740Z,97933.59
2024-04-24T02:45:54.793Z,97938.03
2024-04-24T02:46:25.583Z,97942.16
2024-04-24T02:46:56.466Z,97937.69
2024-04-24T02:47:27.389Z,97931.63
2024-04-24T02:47:58.391Z,97928.75
2024-04-24T02:48:29.343Z,97933.94
2024-04-24T02:49:00.212Z,97935.88
2024-04-24T02:49:31.095Z,97931.53
2024-04-24T02:50:01.973Z,97934.28
2024-04-24T02:50:32.891Z,97930.31
2024-04-24T02:51:03.902Z,97930.31
2024-04-24T02:51:34.755Z,97929.97
2024-04-24T02:52:05.778Z,97935.03
2024-04-24T02:52:36.620Z,97936.72
2024-04-24T02:53:07.418Z,97932.22
2024-04-24T02:53:38.219Z,97937.53
2024-04-24T02:54:09.043Z,97929.13
2024-04-24T02:54:39.849Z,97934.06
2024-04-24T02:55:10.687Z,97937.34
2024-04-24T02:55:41.488Z,97935.63
2024-04-24T02:56:12.368Z,97933.09
2024-04-24T02:56:43.177Z,97940.94
2024-04-24T02:57:13.946Z,97928.63
2024-04-24T02:57:45.063Z,97933.22
2024-04-24T02:58:15.831Z,97934.78
2024-04-24T02:58:46.665Z,97928.88
2024-04-24T02:59:17.625Z,97941.19
2024-04-24T02:59:48.537Z,97942.03
2024-04-24T03:00:19.359Z,97938.78
2024-04-24T03:00:50.210Z,97936.00
2024-04-24T03:01:21.052Z,97941.66
2024-04-24T03:01:51.927Z,97927.78
2024-04-24T03:02:22.848Z,97938.66
2024-04-24T03:02:53.855Z,97933.69
2024-04-24T03:03:24.672Z,97935.38
2024-04-24T03:03:56.145Z,97938.41
2024-04-24T03:04:26.931Z,97930.44
2024-04-24T03:04:57.798Z,97940.44
2024-04-24T03:05:28.639Z,97926.56
2024-04-24T03:05:59.506Z,97937.09
2024-04-24T03:06:30.328Z,97937.09
2024-04-24T03:07:01.105Z,97936.25
2024-04-24T03:07:31.880Z,97933.47
2024-04-24T03:08:02.951Z,97932.88
2024-04-24T03:08:33.952Z,97926.94
2024-04-24T03:09:04.785Z,97922.59
2024-04-24T03:09:35.566Z,97928.63
2024-04-24T03:10:06.566Z,97936.94
2024-04-24T03:10:37.367Z,97933.47
2024-04-24T03:11:08.315Z,97929.84
2024-04-24T03:11:39.446Z,97935.28
2024-04-24T03:12:10.351Z,97931.78
2024-04-24T03:12:41.164Z,97928.53
2024-04-24T03:13:11.932Z,97928.38
2024-04-24T03:13:42.802Z,97932.72
2024-04-24T03:14:18.815Z,97926.94
2024-04-24T03:14:49.656Z,97925.13
2024-04-24T03:15:20.441Z,97927.78
2024-04-24T03:15:51.301Z,97929.38
2024-04-24T03:16:31.947Z,97932.97
2024-04-24T03:17:02.940Z,97924.53
2024-04-24T03:17:36.523Z,97932.00
2024-04-24T03:18:08.539Z,97926.81
2024-04-24T03:18:42.596Z,97923.19
2024-04-24T03:19:13.512Z,97918.25
2024-04-24T03:19:44.308Z,97921.59
2024-04-24T03:20:15.167Z,97919.19
2024-04-24T03:20:46.639Z,97918.25
2024-04-24T03:21:21.116Z,97918.50
2024-04-24T03:21:51.998Z,97923.78
2024-04-24T03:22:22.853Z,97921.25
2024-04-24T03:22:53.662Z,97913.03
2024-04-24T03:23:24.524Z,97921.75
2024-04-24T03:23:55.418Z,97917.53
2024-04-24T03:24:27.052Z,97907.97
2024-04-24T03:24:58.014Z,97918.00
2024-04-24T03:25:28.810Z,97916.19
2024-04-24T03:25:59.616Z,97921.38
2024-04-24T03:26:30.402Z,97924.47
2024-04-24T03:27:01.362Z,97918.47
2024-04-24T03:27:32.881Z,97924.97
2024-04-24T03:28:04.005Z,97915.28
2024-04-24T03:28:34.914Z,97928.81
2024-04-24T03:29:05.791Z,97923.50
2024-04-24T03:29:38.711Z,97930.84
2024-04-24T03:30:09.776Z,97929.03
2024-04-24T03:30:40.580Z,97923.13
2024-04-24T03:31:11.373Z,97913.44
2024-04-24T03:31:42.259Z,97929.38
2024-04-24T03:32:13.089Z,97917.31
2024-04-24T03:32:44.168Z,97937.34
2024-04-24T03:33:15.221Z,97927.69
2024-04-24T03:34:13.158Z,97924.41
2024-04-24T03:34:46.160Z,97933.47
2024-04-24T03:35:16.935Z,97921.28
2024-04-24T03:35:47.757Z,97923.09
2024-04-24T03:36:18.510Z,97928.59
2024-04-24T03:36:49.318Z,97930.06
2024-04-24T03:37:20.159Z,97928.50
2024-04-24T03:37:50.925Z,97926.81
2024-04-24T03:38:21.893Z,97937.22
2024-04-24T03:38:53.555Z,97925.84
2024-04-24T03:39:24.302Z,97932.34
2024-04-24T03:39:55.049Z,97934.28
2024-04-24T03:40:25.853Z,97924.63
2024-04-24T03:40:56.654Z,97928.00
2024-04-24T03:41:27.689Z,97930.53
2024-04-24T03:41:58.527Z,97928.13
2024-04-24T03:42:29.392Z,97927.50
2024-04-24T03:43:00.194Z,97931.13
2024-04-24T03:43:31.023Z,97930.41
2024-04-24T03:44:01.887Z,97929.22
2024-04-24T03:44:32.696Z,97931.13
2024-04-24T03:45:03.935Z,97930.41
2024-04-24T03:45:34.716Z,97926.75
2024-04-24T03:46:05.503Z,97928.38
2024-04-24T03:46:36.429Z,97924.63
2024-04-24T03:47:07.303Z,97929.31
2024-04-24T03:47:38.240Z,97927.94
2024-04-24T03:48:09.172Z,97929.66
2024-04-24T03:48:41.938Z,97928.69
2024-04-24T03:49:13.002Z,97924.47
2024-04-24T03:49:43.806Z,97926.06
2024-04-24T03:50:14.638Z,97929.66
2024-04-24T03:50:45.455Z,97923.63
2024-04-24T03:51:16.341Z,97926.63
2024-04-24T03:51:47.105Z,97923.63
2024-04-24T03:52:19.647Z,97931.59
2024-04-24T03:52:50.488Z,97926.38
2024-04-24T03:53:22.458Z,97918.66
2024-04-24T03:53:53.475Z,97925.44
2024-04-24T03:54:24.321Z,97926.91
2024-04-24T03:54:55.135Z,97920.13
2024-04-24T03:55:25.918Z,97925.44
2024-04-24T03:55:56.770Z,97921.22
2024-04-24T03:56:27.697Z,97927.13
2024-04-24T03:56:58.545Z,97918.19
2024-04-24T03:57:29.359Z,97924.69
2024-04-24T03:58:00.211Z,97916.34
2024-04-24T03:58:31.029Z,97917.81
2024-04-24T03:59:02.014Z,97919.53
2024-04-24T03:59:32.843Z,97918.78
2024-04-24T04:00:03.999Z,97912.50
2024-04-24T04:00:34.923Z,97925.66
2024-04-24T04:01:05.823Z,97923.22
2024-04-24T04:01:36.630Z,97912.00
2024-04-24T04:02:07.583Z,97921.88
2024-04-24T04:02:38.470Z,97926.09
2024-04-24T04:03:09.465Z,97920.09
2024-04-24T04:03:40.298Z,97921.88
2024-04-24T04:04:11.307Z,97927.09
2024-04-24T04:04:42.115Z,97918.53
2024-04-24T04:05:13.246Z,97927.09
2024-04-24T04:05:44.047Z,97928.28
2024-04-24T04:06:14.825Z,97913.66
2024-04-24T04:06:45.609Z,97924.44
2024-04-24T04:07:16.401Z,97932.59
2024-04-24T04:07:47.290Z,97932.72
2024-04-24T04:08:19.915Z,97930.06
2024-04-24T04:08:50.772Z,97928.28
2024-04-24T04:09:21.573Z,97927.44
2024-04-24T04:09:52.349Z,97938.03
2024-04-24T04:10:23.102Z,97935.25
2024-04-24T04:10:53.982Z,97936.31
2024-04-24T04:11:24.948Z,97931.34
2024-04-24T04:11:55.883Z,97933.56
2024-04-24T04:12:26.825Z,97928.28
2024-04-24T04:12:57.675Z,97934.19
2024-04-24T04:13:28.459Z,97941.28
2024-04-24T04:13:59.297Z,97940.34
2024-04-24T04:14:30.186Z,97938.75
2024-04-24T04:15:01.038Z,97941.72
2024-04-24T04:15:31.875Z,97940.53
2024-04-24T04:16:02.838Z,97942.16
2024-04-24T04:16:33.878Z,97937.78
2024-04-24T04:17:04.925Z,97947.06
2024-04-24T04:17:36.591Z,97936.94
2024-04-24T04:18:07.482Z,97945.75
2024-04-24T04:18:38.363Z,97944.66
2024-04-24T04:19:09.212Z,97943.09
2024-04-24T04:19:40.020Z,97934.63
2024-04-24T04:20:11.116Z,97944.44
2024-04-24T04:20:41.874Z,97947.94
2024-04-24T04:21:12.710Z,97947.81
2024-04-24T04:21:43.590Z,97957.34
2024-04-24T04:22:17.108Z,97946.88
2024-04-24T04:22:47.979Z,97948.53
2024-04-24T04:23:18.975Z,97953.84
2024-04-24T04:23:49.763Z,97953.97
2024-04-24T04:24:20.584Z,97961.59
2024-04-24T04:24:51.389Z,97950.25
2024-04-24T04:25:22.159Z,97946.75
2024-04-24T04:25:53.017Z,97949.53
2024-04-24T04:26:24.503Z,97953.97
2024-04-24T04:26:55.308Z,97953.75
2024-04-24T04:27:27.131Z,97954.34
2024-04-24T04:27:58.805Z,97960.50
2024-04-24T04:28:29.612Z,97945.19
2024-04-24T04:29:00.454Z,97956.63
2024-04-24T04:29:31.296Z,97955.53
2024-04-24T04:30:02.355Z,97960.63
2024-04-24T04:30:33.126Z,97958.72
2024-04-24T04:31:03.903Z,97961.38
2024-04-24T04:31:34.664Z,97957.72
2024-04-24T04:32:05.526Z,97955.22
2024-04-24T04:32:36.523Z,97958.56
2024-04-24T04:33:07.585Z,97958.94
2024-04-24T04:34:21.565Z,97962.97
2024-04-24T04:34:52.757Z,97958.44
2024-04-24T04:35:23.613Z,97949.25
2024-04-24T04:35:54.575Z,97957.06
2024-04-24T04:36:25.359Z,97951.91
2024-04-24T04:36:56.165Z,97949.56
2024-04-24T04:37:26.918Z,97946.41
2024-04-24T04:37:57.723Z,97963.50
2024-04-24T04:38:28.539Z,97955.66
2024-04-24T04:38:59.421Z,97950.38
2024-04-24T04:39:30.287Z,97958.41
2024-04-24T04:40:02.437Z,97957.69
2024-04-24T04:40:33.197Z,97963.94
2024-04-24T04:41:04.028Z,97950.47
2024-04-24T04:41:34.862Z,97950.69
2024-04-24T04:42:05.727Z,97958.41
2024-04-24T04:42:36.516Z,97959.03
2024-04-24T04:43:07.456Z,97954.72
2024-04-24T04:43:38.296Z,97953.25
2024-04-24T04:44:09.259Z,97950.84
2024-04-24T04:44:40.054Z,97948.50
2024-04-24T04:45:10.993Z,97953.88
2024-04-24T04:45:41.860Z,97949.53
2024-04-24T04:46:12.709Z,97958.69
2024-04-24T04:46:43.643Z,97960.91
2024-04-24T04:47:14.532Z,97950.59
2024-04-24T04:47:45.754Z,97960.25
2024-04-24T04:48:16.740Z,97943.78
2024-04-24T04:48:50.216Z,97959.44
2024-04-24T04:49:22.667Z,97963.88
2024-04-24T04:49:53.486Z,97951.94
2024-04-24T04:50:24.502Z,97950.38
2024-04-24T04:50:55.977Z,97963.09
2024-04-24T04:51:26.763Z,97958.72
2024-04-24T04:51:57.572Z,97956.53
2024-04-24T04:52:30.111Z,97963.63
2024-04-24T04:53:00.989Z,97960.34
2024-04-24T04:53:31.789Z,97966.38
2024-04-24T04:54:03.116Z,97957.81
2024-04-24T04:54:33.980Z,97961.66
2024-04-24T04:55:05.144Z,97960.56
2024-04-24T04:55:35.952Z,97961.44
2024-04-24T04:56:08.386Z,97956.97
2024-04-24T04:56:39.824Z,97962.28
2024-04-24T04:57:10.618Z,97954.75
2024-04-24T04:57:41.594Z,97963.75
2024-04-24T04:58:12.429Z,97961.84
2024-04-24T04:58:43.203Z,97963.00
2024-04-24T04:59:14.143Z,97961.34
2024-04-24T04:59:45.165Z,97967.34
2024-04-24T05:00:16.192Z,97956.91
2024-04-24T05:00:47.008Z,97971.72
2024-04-24T05:01:17.886Z,97962.91
2024-04-24T05:01:48.699Z,97951.78
2024-04-24T05:02:20.987Z,97958.06
2024-04-24T05:02:52.158Z,97947.47
2024-04-24T05:03:23.068Z,97950.13
2024-04-24T05:03:53.911Z,97956.59
2024-04-24T05:04:24.834Z,97954.88
2024-04-24T05:04:55.695Z,97956.59
2024-04-24T05:05:26.630Z,97944.28
2024-04-24T05:05:57.499Z,97954.66
2024-04-24T05:06:28.435Z,97960.09
2024-04-24T05:06:59.214Z,97946.22
2024-04-24T05:07:30.036Z,97954.78
2024-04-24T05:08:00.857Z,97956.22
2024-04-24T05:08:31.760Z,97955.50
2024-04-24T05:09:03.054Z,97949.38
2024-04-24T05:09:35.481Z,97959.09
2024-04-24T05:10:06.454Z,97962.28
2024-04-24T05:10:37.571Z,97959.53
2024-04-24T05:11:08.454Z,97958.69
2024-04-24T05:11:39.412Z,97962.91
2024-04-24T05:12:10.229Z,97951.16
2024-04-24T05:12:41.038Z,97964.19
2024-04-24T05:13:16.228Z,97961.66
2024-04-24T05:13:47.013Z,97952.00
2024-04-24T05:14:18.008Z,97952.97
2024-04-24T05:14:50.937Z,97959.97
2024-04-24T05:15:21.729Z,97961.25
2024-04-24T05:15:52.550Z,97957.63
2024-04-24T05:16:23.358Z,97950.84
2024-04-24T05:16:54.343Z,97952.06
2024-04-24T05:17:25.294Z,97940.06
2024-04-24T05:17:56.403Z,97963.81
2024-04-24T05:18:27.522Z,97971.19
2024-04-24T05:18:58.375Z,97963.03
2024-04-24T05:19:29.228Z,97957.97
2024-04-24T05:20:00.047Z,97960.50
2024-04-24T05:20:30.917Z,97958.06
2024-04-24T05:21:01.952Z,97956.81
2024-04-24T05:21:32.793Z,97961.47
2024-04-24T05:22:03.621Z,97960.19
2024-04-24T05:22:46.499Z,97960.19
2024-04-24T05:23:17.293Z,97968.13
2024-04-24T05:23:48.108Z,97959.34
2024-04-24T05:24:18.924Z,97960.81
2024-04-24T05:24:49.788Z,97962.19
2024-04-24T05:25:21.787Z,97958.28
2024-04-24T05:25:55.135Z,97960.19
2024-04-24T05:26:44.360Z,97968.47
2024-04-24T05:27:34.078Z,97966.00
2024-04-24T05:28:26.744Z,97971.81
2024-04-24T05:29:10.706Z,97976.69
2024-04-24T05:29:41.560Z,97974.69
2024-04-24T05:30:12.428Z,97973.53
2024-04-24T05:30:43.347Z,97977.13
2024-04-24T05:31:14.182Z,97974.47
2024-04-24T05:31:45.141Z,97974.38
2024-04-24T05:32:15.990Z,97970.75
2024-04-24T05:32:49.694Z,97963.81
2024-04-24T05:33:20.625Z,97972.03
2024-04-24T05:33:51.568Z,97980.72
2024-04-24T05:34:23.498Z,97975.63
2024-04-24T05:34:55.241Z,97966.44
2024-04-24T05:35:26.217Z,97965.91
2024-04-24T05:35:57.085Z,97977.56
2024-04-24T05:36:28.089Z,97976.41
2024-04-24T05:36:58.886Z,97975.63
2024-04-24T05:37:29.659Z,97983.34
2024-04-24T05:38:00.597Z,97981.78
2024-04-24T05:38:31.527Z,97982.41
2024-04-24T05:39:02.601Z,97970.25
2024-04-24T05:39:33.363Z,97978.19
2024-04-24T05:40:04.741Z,97966.22
2024-04-24T05:40:35.735Z,97977.44
2024-04-24T05:41:06.542Z,97976.28
2024-04-24T05:42:23.145Z,97968.34
2024-04-24T05:42:54.132Z,97976.91
2024-04-24T05:43:24.942Z,97965.06
2024-04-24T05:43:55.821Z,97986.00
2024-04-24T05:44:28.066Z,97982.41
2024-04-24T05:44:58.921Z,97983.03
2024-04-24T05:45:29.725Z,97982.81
2024-04-24T05:46:00.542Z,97981.34
2024-04-24T05:46:31.315Z,97986.75
2024-04-24T05:47:03.231Z,97974.91
2024-04-24T05:47:34.148Z,97977.22
2024-04-24T05:48:05.414Z,97975.53
2024-04-24T05:48:36.357Z,97983.16
2024-04-24T05:49:07.174Z,97978.69
2024-04-24T05:49:38.022Z,97987.09
2024-04-24T05:50:08.904Z,97992.38
2024-04-24T05:50:39.830Z,97984.75
2024-04-24T05:51:10.614Z,97983.47
2024-04-24T05:51:41.997Z,97984.44
2024-04-24T05:52:12.899Z,97973.41
2024-04-24T05:52:43.699Z,97981.97
2024-04-24T05:53:14.517Z,97980.09
2024-04-24T05:53:45.458Z,97980.72
2024-04-24T05:54:16.282Z,97985.69
2024-04-24T05:54:47.043Z,97981.56
2024-04-24T05:55:18.063Z,97990.22
2024-04-24T05:55:49.004Z,97978.69
2024-04-24T05:56:19.838Z,97974.16
2024-04-24T05:56:50.672Z,97967.28
2024-04-24T05:57:25.255Z,97978.06
2024-04-24T05:57:57.385Z,97976.72
2024-04-24T05:58:28.178Z,97983.88
2024-04-24T05:58:59.003Z,97982.94
2024-04-24T05:59:29.883Z,97990.78
2024-04-24T06:00:00.736Z,97979.84
2024-04-24T06:00:31.518Z,97990.97
2024-04-24T06:01:02.508Z,97989.81
2024-04-24T06:01:33.362Z,97987.50
2024-04-24T06:02:04.208Z,97994.28
2024-04-24T06:02:35.307Z,97990.44
2024-04-24T06:03:08.782Z,97986.53
2024-04-24T06:03:39.662Z,97994.03
2024-04-24T06:04:10.462Z,97991.31
2024-04-24T06:04:41.404Z,97998.81
2024-04-24T06:05:12.699Z,97988.75
2024-04-24T06:05:43.564Z,97995.75
2024-04-24T06:06:14.382Z,97997.44
2024-04-24T06:06:45.169Z,97998.41
2024-04-24T06:07:15.927Z,98002.75
2024-04-24T06:07:46.689Z,97997.31
2024-04-24T06:08:17.502Z,98004.94
2024-04-24T06:08:48.307Z,98000.81
2024-04-24T06:09:19.130Z,97995.66
2024-04-24T06:09:49.889Z,97999.78
2024-04-24T06:10:20.668Z,97993.44
2024-04-24T06:10:52.827Z,97994.38
2024-04-24T06:11:23.783Z,97998.19
2024-04-24T06:11:54.783Z,97996.28
2024-04-24T06:12:25.793Z,97998.91